Impacts TAF Board INFO
FOR SITUATIONAL AWARENESS. NOT TO BE USED FOR FLIGHT PLANNING PURPOSES.
IDs:

KFLL - Ft Lauderdale-Hollyw, FL, US

Issued at 1134 UTC 19 Jun 2018
Updated at 1237 UTC 19 Jun 2018
Potential Impact None Slight Moderate High
Time1153Z 19/13Z 19/14Z 19/15Z 19/16Z 19/17Z 19/18Z 19/19Z 19/20Z 19/21Z 19/22Z 19/23Z 20/00Z 20/01Z>>
Type OBS PRVL PRVL PRVL PRVL PRVL PRVL PRVL PRVL PRVL PRVL PRVL PRVL PRVL
VIS 10 >6 >6 >6 >6 >6 >6 >6 >6 >6 >6 >6 >6 >6
CIG 47 -- -- -- -- -- -- -- -- -- -- -- -- --
Cover BKN SCT SCT SCT SCT SCT SCT SCT SCT SCT SCT SCT SCT SCT
FltCat VFR VFR VFR VFR VFR VFR VFR VFR VFR VFR VFR VFR VFR VFR
WX -- VCSH VCSH VCSH VCSH VCSH VCSH VCSH VCSH VCSH -- -- -- --
WDir VRB 110 110 110 110 110 110 110 110 110 110 110 110 VRB
WSpd 0 10 10 10 10 10 10 10 10 10 10 10 10 6
WGst -- -- -- -- -- -- -- -- -- -- -- -- -- --

Raw TAF
KFLL 191134Z 1912/2018 VRB04KT P6SM VCSH SCT025 SCT250
  FM191300 11010KT P6SM VCSH SCT025 SCT050
  FM192200 11010KT P6SM SCT030 SCT050
  FM200100 VRB06KT P6SM SCT025 SCT050
  FM200500 VRB03KT P6SM SCT030
  FM201400 14007KT P6SM SCT025 BKN050


Raw METAR
KFLL 191153Z 00000KT 10SM FEW025 BKN047 27/25 A3003 RMK AO2 SLP169 T02670250 10267 20256 51015
KFLL 191053Z 35003KT 10SM FEW025TCU SCT250 26/24 A3002 RMK AO2 SLP165 TCU NE T02560244
KFLL 190953Z 32003KT 10SM FEW025 26/24 A3001 RMK AO2 SLP160 TCU DSNT NE T02560244

METAR Board
Radar Display
Forecast Discussion

FOR SITUATIONAL AWARENESS. NOT TO BE USED FOR FLIGHT PLANNING PURPOSES.